sensor_id;sensor_type;location;lat;lon;timestamp;temperature;humidity
17172;DHT22;8701;50.150;8.756;2023-06-22T00:03:02;23.60;99.90
17172;DHT22;8701;50.150;8.756;2023-06-22T00:07:05;23.60;99.90
17172;DHT22;8701;50.150;8.756;2023-06-22T00:11:07;23.60;99.90
17172;DHT22;8701;50.150;8.756;2023-06-22T00:15:11;23.50;99.90
17172;DHT22;8701;50.150;8.756;2023-06-22T00:19:13;23.40;99.90
17172;DHT22;8701;50.150;8.756;2023-06-22T00:23:15;23.40;99.90
17172;DHT22;8701;50.150;8.756;2023-06-22T00:27:18;23.40;99.90
17172;DHT22;8701;50.150;8.756;2023-06-22T00:31:22;23.30;99.90
17172;DHT22;8701;50.150;8.756;2023-06-22T00:35:24;23.20;99.90
17172;DHT22;8701;50.150;8.756;2023-06-22T00:39:29;23.20;99.90
17172;DHT22;8701;50.150;8.756;2023-06-22T00:43:31;23.20;99.90
17172;DHT22;8701;50.150;8.756;2023-06-22T00:47:36;23.10;99.90
17172;DHT22;8701;50.150;8.756;2023-06-22T00:51:39;23.00;99.90
17172;DHT22;8701;50.150;8.756;2023-06-22T00:55:47;23.00;99.90
17172;DHT22;8701;50.150;8.756;2023-06-22T00:59:52;23.00;99.90
17172;DHT22;8701;50.150;8.756;2023-06-22T01:03:55;23.00;99.90
17172;DHT22;8701;50.150;8.756;2023-06-22T01:08:05;23.00;99.90
17172;DHT22;8701;50.150;8.756;2023-06-22T01:12:09;23.10;99.90
17172;DHT22;8701;50.150;8.756;2023-06-22T01:16:17;23.10;99.90
17172;DHT22;8701;50.150;8.756;2023-06-22T01:20:23;23.10;99.90
17172;DHT22;8701;50.150;8.756;2023-06-22T01:24:32;23.20;99.90
17172;DHT22;8701;50.150;8.756;2023-06-22T01:28:43;23.10;99.90
17172;DHT22;8701;50.150;8.756;2023-06-22T01:32:47;23.10;99.90
17172;DHT22;8701;50.150;8.756;2023-06-22T01:36:50;22.90;99.90
17172;DHT22;8701;50.150;8.756;2023-06-22T01:40:53;22.80;99.90
17172;DHT22;8701;50.150;8.756;2023-06-22T01:44:58;22.70;99.90
17172;DHT22;8701;50.150;8.756;2023-06-22T01:49:02;22.50;99.90
17172;DHT22;8701;50.150;8.756;2023-06-22T01:53:04;22.40;99.90
17172;DHT22;8701;50.150;8.756;2023-06-22T01:57:07;22.40;99.90
17172;DHT22;8701;50.150;8.756;2023-06-22T02:01:12;22.20;99.90
17172;DHT22;8701;50.150;8.756;2023-06-22T02:05:17;22.20;99.90
17172;DHT22;8701;50.150;8.756;2023-06-22T02:09:22;22.20;99.90
17172;DHT22;8701;50.150;8.756;2023-06-22T02:13:25;22.20;99.90
17172;DHT22;8701;50.150;8.756;2023-06-22T02:17:29;22.20;99.90
17172;DHT22;8701;50.150;8.756;2023-06-22T02:21:35;22.20;99.90
17172;DHT22;8701;50.150;8.756;2023-06-22T02:25:37;22.10;99.90
17172;DHT22;8701;50.150;8.756;2023-06-22T02:29:39;22.00;99.90
17172;DHT22;8701;50.150;8.756;2023-06-22T02:33:42;22.00;99.90
17172;DHT22;8701;50.150;8.756;2023-06-22T02:37:46;22.00;99.90
17172;DHT22;8701;50.150;8.756;2023-06-22T02:41:48;22.00;99.90
17172;DHT22;8701;50.150;8.756;2023-06-22T02:45:50;21.90;99.90
17172;DHT22;8701;50.150;8.756;2023-06-22T02:49:54;21.90;99.90
17172;DHT22;8701;50.150;8.756;2023-06-22T02:53:57;21.90;99.90
17172;DHT22;8701;50.150;8.756;2023-06-22T02:58:02;21.90;99.90
17172;DHT22;8701;50.150;8.756;2023-06-22T03:02:08;21.80;99.90
17172;DHT22;8701;50.150;8.756;2023-06-22T03:06:13;21.80;99.90
17172;DHT22;8701;50.150;8.756;2023-06-22T03:10:16;21.70;99.90
17172;DHT22;8701;50.150;8.756;2023-06-22T03:14:18;21.70;99.90
17172;DHT22;8701;50.150;8.756;2023-06-22T03:18:20;21.70;99.90
17172;DHT22;8701;50.150;8.756;2023-06-22T03:22:25;21.70;99.90
17172;DHT22;8701;50.150;8.756;2023-06-22T03:26:28;21.60;99.90
17172;DHT22;8701;50.150;8.756;2023-06-22T03:30:32;21.60;99.90
17172;DHT22;8701;50.150;8.756;2023-06-22T03:34:35;21.50;99.90
17172;DHT22;8701;50.150;8.756;2023-06-22T03:38:39;21.50;99.90
17172;DHT22;8701;50.150;8.756;2023-06-22T03:42:41;21.40;99.90
17172;DHT22;8701;50.150;8.756;2023-06-22T03:46:44;21.40;99.90
17172;DHT22;8701;50.150;8.756;2023-06-22T03:50:46;21.40;99.90
17172;DHT22;8701;50.150;8.756;2023-06-22T03:54:50;21.40;99.90
17172;DHT22;8701;50.150;8.756;2023-06-22T03:58:52;21.40;99.90
17172;DHT22;8701;50.150;8.756;2023-06-22T04:02:54;21.40;99.90
17172;DHT22;8701;50.150;8.756;2023-06-22T04:06:56;21.50;99.90
17172;DHT22;8701;50.150;8.756;2023-06-22T04:11:00;21.50;99.90
17172;DHT22;8701;50.150;8.756;2023-06-22T04:15:02;21.50;99.90
17172;DHT22;8701;50.150;8.756;2023-06-22T04:19:04;21.50;99.90
17172;DHT22;8701;50.150;8.756;2023-06-22T04:23:07;21.50;99.90
17172;DHT22;8701;50.150;8.756;2023-06-22T04:27:10;21.50;99.90
17172;DHT22;8701;50.150;8.756;2023-06-22T04:31:12;21.50;99.90
17172;DHT22;8701;50.150;8.756;2023-06-22T04:35:15;21.50;99.90
17172;DHT22;8701;50.150;8.756;2023-06-22T04:39:17;21.50;99.90
17172;DHT22;8701;50.150;8.756;2023-06-22T04:43:21;21.60;99.90
17172;DHT22;8701;50.150;8.756;2023-06-22T04:47:23;21.60;99.90
17172;DHT22;8701;50.150;8.756;2023-06-22T04:51:25;21.60;99.90
17172;DHT22;8701;50.150;8.756;2023-06-22T04:55:31;21.70;99.90
17172;DHT22;8701;50.150;8.756;2023-06-22T04:59:36;21.70;99.90
17172;DHT22;8701;50.150;8.756;2023-06-22T05:03:40;21.70;99.90
17172;DHT22;8701;50.150;8.756;2023-06-22T05:07:43;21.80;99.90
17172;DHT22;8701;50.150;8.756;2023-06-22T05:11:46;21.80;99.90
17172;DHT22;8701;50.150;8.756;2023-06-22T05:15:50;21.90;99.90
17172;DHT22;8701;50.150;8.756;2023-06-22T05:19:52;21.90;99.90
17172;DHT22;8701;50.150;8.756;2023-06-22T05:23:56;22.00;99.90
17172;DHT22;8701;50.150;8.756;2023-06-22T05:28:01;22.00;99.90
17172;DHT22;8701;50.150;8.756;2023-06-22T05:32:13;22.10;99.90
17172;DHT22;8701;50.150;8.756;2023-06-22T05:36:15;22.10;99.90
17172;DHT22;8701;50.150;8.756;2023-06-22T05:40:18;22.10;99.90
17172;DHT22;8701;50.150;8.756;2023-06-22T05:44:20;22.10;99.90
17172;DHT22;8701;50.150;8.756;2023-06-22T05:48:24;22.10;99.90
17172;DHT22;8701;50.150;8.756;2023-06-22T05:52:26;22.10;99.90
17172;DHT22;8701;50.150;8.756;2023-06-22T05:56:28;22.20;99.90
17172;DHT22;8701;50.150;8.756;2023-06-22T06:00:30;22.20;99.90
17172;DHT22;8701;50.150;8.756;2023-06-22T06:04:34;22.30;99.90
17172;DHT22;8701;50.150;8.756;2023-06-22T06:08:37;22.40;99.90
17172;DHT22;8701;50.150;8.756;2023-06-22T06:12:39;22.50;99.90
17172;DHT22;8701;50.150;8.756;2023-06-22T06:16:41;22.60;99.90
17172;DHT22;8701;50.150;8.756;2023-06-22T06:20:44;22.70;99.90
17172;DHT22;8701;50.150;8.756;2023-06-22T06:24:47;22.80;99.90
17172;DHT22;8701;50.150;8.756;2023-06-22T06:28:49;22.90;99.90
17172;DHT22;8701;50.150;8.756;2023-06-22T06:32:52;23.00;99.90
17172;DHT22;8701;50.150;8.756;2023-06-22T06:36:55;23.10;99.90
17172;DHT22;8701;50.150;8.756;2023-06-22T06:40:58;23.20;99.90
17172;DHT22;8701;50.150;8.756;2023-06-22T06:45:00;23.30;99.90
17172;DHT22;8701;50.150;8.756;2023-06-22T06:49:02;23.50;99.90
17172;DHT22;8701;50.150;8.756;2023-06-22T06:53:06;23.60;99.90
17172;DHT22;8701;50.150;8.756;2023-06-22T06:57:08;23.80;99.90
17172;DHT22;8701;50.150;8.756;2023-06-22T07:01:11;24.00;99.90
17172;DHT22;8701;50.150;8.756;2023-06-22T07:05:13;24.00;99.90
17172;DHT22;8701;50.150;8.756;2023-06-22T07:09:17;24.10;99.90
17172;DHT22;8701;50.150;8.756;2023-06-22T07:13:19;24.30;99.90
17172;DHT22;8701;50.150;8.756;2023-06-22T07:17:22;24.40;99.90
17172;DHT22;8701;50.150;8.756;2023-06-22T07:21:24;24.60;99.90
17172;DHT22;8701;50.150;8.756;2023-06-22T07:25:27;24.70;99.90
17172;DHT22;8701;50.150;8.756;2023-06-22T07:29:30;24.80;99.90
17172;DHT22;8701;50.150;8.756;2023-06-22T07:33:32;24.90;99.90
17172;DHT22;8701;50.150;8.756;2023-06-22T07:37:35;24.90;99.90
17172;DHT22;8701;50.150;8.756;2023-06-22T07:41:43;24.90;99.90
17172;DHT22;8701;50.150;8.756;2023-06-22T07:45:48;25.10;99.90
17172;DHT22;8701;50.150;8.756;2023-06-22T07:49:53;25.50;99.90
17172;DHT22;8701;50.150;8.756;2023-06-22T07:53:55;26.10;99.90
17172;DHT22;8701;50.150;8.756;2023-06-22T07:57:59;26.60;99.90
17172;DHT22;8701;50.150;8.756;2023-06-22T08:02:01;27.30;99.90
17172;DHT22;8701;50.150;8.756;2023-06-22T08:06:04;27.80;99.90
17172;DHT22;8701;50.150;8.756;2023-06-22T08:10:10;28.30;99.90
17172;DHT22;8701;50.150;8.756;2023-06-22T08:14:14;28.80;99.90
17172;DHT22;8701;50.150;8.756;2023-06-22T08:18:17;29.10;99.90
17172;DHT22;8701;50.150;8.756;2023-06-22T08:22:19;29.70;99.90
17172;DHT22;8701;50.150;8.756;2023-06-22T08:26:21;30.10;99.90
17172;DHT22;8701;50.150;8.756;2023-06-22T08:30:26;30.40;99.90
17172;DHT22;8701;50.150;8.756;2023-06-22T08:34:28;30.70;99.90
17172;DHT22;8701;50.150;8.756;2023-06-22T08:38:31;30.90;99.90
17172;DHT22;8701;50.150;8.756;2023-06-22T08:42:33;31.10;99.90
17172;DHT22;8701;50.150;8.756;2023-06-22T08:46:37;31.30;99.90
17172;DHT22;8701;50.150;8.756;2023-06-22T08:50:41;31.50;99.90
17172;DHT22;8701;50.150;8.756;2023-06-22T08:54:43;31.90;99.90
17172;DHT22;8701;50.150;8.756;2023-06-22T08:58:46;32.10;99.90
17172;DHT22;8701;50.150;8.756;2023-06-22T09:02:50;32.40;99.90
17172;DHT22;8701;50.150;8.756;2023-06-22T09:06:52;32.70;99.90
17172;DHT22;8701;50.150;8.756;2023-06-22T09:10:55;32.60;99.90
17172;DHT22;8701;50.150;8.756;2023-06-22T09:14:57;32.70;99.90
17172;DHT22;8701;50.150;8.756;2023-06-22T09:19:02;33.10;99.90
17172;DHT22;8701;50.150;8.756;2023-06-22T09:23:05;33.50;99.90
17172;DHT22;8701;50.150;8.756;2023-06-22T09:27:07;33.50;99.90
17172;DHT22;8701;50.150;8.756;2023-06-22T09:31:09;33.00;99.90
17172;DHT22;8701;50.150;8.756;2023-06-22T09:35:13;32.60;99.90
17172;DHT22;8701;50.150;8.756;2023-06-22T09:39:16;32.80;99.90
17172;DHT22;8701;50.150;8.756;2023-06-22T09:43:18;33.20;99.90
17172;DHT22;8701;50.150;8.756;2023-06-22T09:47:20;33.30;99.90
17172;DHT22;8701;50.150;8.756;2023-06-22T09:51:24;33.30;99.90
17172;DHT22;8701;50.150;8.756;2023-06-22T09:55:26;33.50;99.90
17172;DHT22;8701;50.150;8.756;2023-06-22T09:59:28;33.40;99.90
17172;DHT22;8701;50.150;8.756;2023-06-22T10:03:31;33.40;99.90
17172;DHT22;8701;50.150;8.756;2023-06-22T10:07:34;33.40;99.90
17172;DHT22;8701;50.150;8.756;2023-06-22T10:11:40;33.80;99.90
17172;DHT22;8701;50.150;8.756;2023-06-22T10:15:43;34.20;99.90
17172;DHT22;8701;50.150;8.756;2023-06-22T10:19:50;33.90;99.90
17172;DHT22;8701;50.150;8.756;2023-06-22T10:23:54;33.90;99.90
17172;DHT22;8701;50.150;8.756;2023-06-22T10:27:56;33.80;99.90
17172;DHT22;8701;50.150;8.756;2023-06-22T10:31:59;33.80;99.90
17172;DHT22;8701;50.150;8.756;2023-06-22T10:36:01;33.40;99.90
17172;DHT22;8701;50.150;8.756;2023-06-22T10:40:06;33.30;99.90
17172;DHT22;8701;50.150;8.756;2023-06-22T10:44:09;33.10;99.90
17172;DHT22;8701;50.150;8.756;2023-06-22T10:48:11;33.10;99.90
17172;DHT22;8701;50.150;8.756;2023-06-22T10:52:14;33.30;99.90
17172;DHT22;8701;50.150;8.756;2023-06-22T10:56:17;33.50;99.90
17172;DHT22;8701;50.150;8.756;2023-06-22T11:00:20;33.80;99.90
17172;DHT22;8701;50.150;8.756;2023-06-22T11:04:22;33.90;99.90
17172;DHT22;8701;50.150;8.756;2023-06-22T11:08:25;34.20;99.90
17172;DHT22;8701;50.150;8.756;2023-06-22T11:12:28;34.30;99.90
17172;DHT22;8701;50.150;8.756;2023-06-22T11:16:30;34.30;99.90
17172;DHT22;8701;50.150;8.756;2023-06-22T11:20:33;34.60;99.90
17172;DHT22;8701;50.150;8.756;2023-06-22T11:24:39;34.40;99.90
17172;DHT22;8701;50.150;8.756;2023-06-22T11:28:42;34.40;99.90
17172;DHT22;8701;50.150;8.756;2023-06-22T11:32:45;34.40;99.90
17172;DHT22;8701;50.150;8.756;2023-06-22T11:36:47;34.20;99.90
17172;DHT22;8701;50.150;8.756;2023-06-22T11:40:49;33.90;99.90
17172;DHT22;8701;50.150;8.756;2023-06-22T11:44:53;33.90;99.90
17172;DHT22;8701;50.150;8.756;2023-06-22T11:48:55;33.90;99.90
17172;DHT22;8701;50.150;8.756;2023-06-22T11:52:57;33.90;99.90
17172;DHT22;8701;50.150;8.756;2023-06-22T11:56:59;33.90;99.90
17172;DHT22;8701;50.150;8.756;2023-06-22T12:01:03;33.60;99.90
17172;DHT22;8701;50.150;8.756;2023-06-22T12:05:06;33.60;99.90
17172;DHT22;8701;50.150;8.756;2023-06-22T12:09:09;33.80;99.90
17172;DHT22;8701;50.150;8.756;2023-06-22T12:13:11;34.00;99.90
17172;DHT22;8701;50.150;8.756;2023-06-22T12:17:15;33.60;99.90
17172;DHT22;8701;50.150;8.756;2023-06-22T12:21:17;33.50;99.90
17172;DHT22;8701;50.150;8.756;2023-06-22T12:25:19;33.80;99.90
17172;DHT22;8701;50.150;8.756;2023-06-22T12:29:21;33.90;99.90
17172;DHT22;8701;50.150;8.756;2023-06-22T12:33:25;34.00;99.90
17172;DHT22;8701;50.150;8.756;2023-06-22T12:37:27;34.00;99.90
17172;DHT22;8701;50.150;8.756;2023-06-22T12:41:29;34.10;99.90
17172;DHT22;8701;50.150;8.756;2023-06-22T12:45:31;34.10;99.90
17172;DHT22;8701;50.150;8.756;2023-06-22T12:49:35;34.30;99.90
17172;DHT22;8701;50.150;8.756;2023-06-22T12:53:38;34.30;99.90
17172;DHT22;8701;50.150;8.756;2023-06-22T12:57:40;34.20;99.90
17172;DHT22;8701;50.150;8.756;2023-06-22T13:01:42;34.00;99.90
17172;DHT22;8701;50.150;8.756;2023-06-22T13:05:47;33.80;99.90
17172;DHT22;8701;50.150;8.756;2023-06-22T13:09:50;33.60;99.90
17172;DHT22;8701;50.150;8.756;2023-06-22T13:13:53;33.30;99.90
17172;DHT22;8701;50.150;8.756;2023-06-22T13:17:56;33.30;99.90
17172;DHT22;8701;50.150;8.756;2023-06-22T13:22:00;33.00;99.90
17172;DHT22;8701;50.150;8.756;2023-06-22T13:26:03;32.80;99.90
17172;DHT22;8701;50.150;8.756;2023-06-22T13:30:06;32.70;99.90
17172;DHT22;8701;50.150;8.756;2023-06-22T13:34:09;32.60;99.90
17172;DHT22;8701;50.150;8.756;2023-06-22T13:38:12;32.70;99.90
17172;DHT22;8701;50.150;8.756;2023-06-22T13:42:15;32.90;99.90
17172;DHT22;8701;50.150;8.756;2023-06-22T13:46:17;32.70;99.90
17172;DHT22;8701;50.150;8.756;2023-06-22T13:50:19;32.60;99.90
17172;DHT22;8701;50.150;8.756;2023-06-22T13:54:23;32.30;99.90
17172;DHT22;8701;50.150;8.756;2023-06-22T13:58:25;32.20;99.90
17172;DHT22;8701;50.150;8.756;2023-06-22T14:02:27;32.30;99.90
17172;DHT22;8701;50.150;8.756;2023-06-22T14:06:30;32.50;99.90
17172;DHT22;8701;50.150;8.756;2023-06-22T14:10:33;32.70;99.90
17172;DHT22;8701;50.150;8.756;2023-06-22T14:14:35;32.90;99.90
17172;DHT22;8701;50.150;8.756;2023-06-22T14:18:38;33.10;99.90
17172;DHT22;8701;50.150;8.756;2023-06-22T14:22:40;33.10;99.90
17172;DHT22;8701;50.150;8.756;2023-06-22T14:26:44;32.90;99.90
17172;DHT22;8701;50.150;8.756;2023-06-22T14:30:46;32.90;99.90
17172;DHT22;8701;50.150;8.756;2023-06-22T14:34:49;33.10;99.90
17172;DHT22;8701;50.150;8.756;2023-06-22T14:38:51;33.10;99.90
17172;DHT22;8701;50.150;8.756;2023-06-22T14:42:54;32.90;99.90
17172;DHT22;8701;50.150;8.756;2023-06-22T14:46:57;32.80;99.90
17172;DHT22;8701;50.150;8.756;2023-06-22T14:51:00;32.80;99.90
17172;DHT22;8701;50.150;8.756;2023-06-22T14:55:02;32.50;99.90
17172;DHT22;8701;50.150;8.756;2023-06-22T14:59:06;32.30;99.70
17172;DHT22;8701;50.150;8.756;2023-06-22T15:03:09;32.10;99.90
17172;DHT22;8701;50.150;8.756;2023-06-22T15:07:18;31.90;99.90
17172;DHT22;8701;50.150;8.756;2023-06-22T15:11:20;31.70;99.90
17172;DHT22;8701;50.150;8.756;2023-06-22T15:15:24;31.70;99.90
17172;DHT22;8701;50.150;8.756;2023-06-22T15:19:26;31.70;99.90
17172;DHT22;8701;50.150;8.756;2023-06-22T15:23:28;31.60;99.90
17172;DHT22;8701;50.150;8.756;2023-06-22T15:27:30;31.40;99.90
17172;DHT22;8701;50.150;8.756;2023-06-22T15:31:34;31.30;99.90
17172;DHT22;8701;50.150;8.756;2023-06-22T15:35:36;31.20;99.90
17172;DHT22;8701;50.150;8.756;2023-06-22T15:39:38;31.00;99.90
17172;DHT22;8701;50.150;8.756;2023-06-22T15:43:41;31.00;99.90
17172;DHT22;8701;50.150;8.756;2023-06-22T15:47:45;31.00;99.90
17172;DHT22;8701;50.150;8.756;2023-06-22T15:51:47;30.90;99.90
17172;DHT22;8701;50.150;8.756;2023-06-22T15:55:49;30.90;99.90
17172;DHT22;8701;50.150;8.756;2023-06-22T15:59:53;30.40;99.90
17172;DHT22;8701;50.150;8.756;2023-06-22T16:03:57;30.10;99.90
17172;DHT22;8701;50.150;8.756;2023-06-22T16:07:59;29.80;99.90
17172;DHT22;8701;50.150;8.756;2023-06-22T16:12:01;29.70;99.90
17172;DHT22;8701;50.150;8.756;2023-06-22T16:16:03;29.60;99.90
17172;DHT22;8701;50.150;8.756;2023-06-22T16:20:08;29.40;99.90
17172;DHT22;8701;50.150;8.756;2023-06-22T16:24:11;29.30;99.90
17172;DHT22;8701;50.150;8.756;2023-06-22T16:28:13;29.10;99.90
17172;DHT22;8701;50.150;8.756;2023-06-22T16:32:15;28.40;99.90
17172;DHT22;8701;50.150;8.756;2023-06-22T16:36:19;27.80;99.90
17172;DHT22;8701;50.150;8.756;2023-06-22T16:40:22;27.00;99.90
17172;DHT22;8701;50.150;8.756;2023-06-22T16:44:24;26.30;99.90
17172;DHT22;8701;50.150;8.756;2023-06-22T16:48:27;25.80;99.90
17172;DHT22;8701;50.150;8.756;2023-06-22T16:52:30;25.40;99.90
17172;DHT22;8701;50.150;8.756;2023-06-22T16:56:33;25.40;99.90
17172;DHT22;8701;50.150;8.756;2023-06-22T17:00:35;25.50;99.90
17172;DHT22;8701;50.150;8.756;2023-06-22T17:04:38;25.60;99.90
17172;DHT22;8701;50.150;8.756;2023-06-22T17:08:43;25.40;99.90
17172;DHT22;8701;50.150;8.756;2023-06-22T17:12:47;25.50;99.90
17172;DHT22;8701;50.150;8.756;2023-06-22T17:16:50;25.50;99.90
17172;DHT22;8701;50.150;8.756;2023-06-22T17:20:53;25.60;99.90
17172;DHT22;8701;50.150;8.756;2023-06-22T17:24:57;25.70;99.90
17172;DHT22;8701;50.150;8.756;2023-06-22T17:29:00;25.60;99.90
17172;DHT22;8701;50.150;8.756;2023-06-22T17:33:08;25.60;99.90
17172;DHT22;8701;50.150;8.756;2023-06-22T17:37:11;25.60;99.90
17172;DHT22;8701;50.150;8.756;2023-06-22T17:41:14;25.60;99.90
17172;DHT22;8701;50.150;8.756;2023-06-22T17:45:20;25.30;99.90
17172;DHT22;8701;50.150;8.756;2023-06-22T17:49:26;25.20;99.90
17172;DHT22;8701;50.150;8.756;2023-06-22T17:53:30;25.10;99.90
17172;DHT22;8701;50.150;8.756;2023-06-22T17:57:37;25.00;99.90
17172;DHT22;8701;50.150;8.756;2023-06-22T18:01:39;25.00;99.90
17172;DHT22;8701;50.150;8.756;2023-06-22T18:05:45;25.10;99.90
17172;DHT22;8701;50.150;8.756;2023-06-22T18:09:48;25.10;99.90
17172;DHT22;8701;50.150;8.756;2023-06-22T18:13:52;25.10;99.90
17172;DHT22;8701;50.150;8.756;2023-06-22T18:17:55;25.10;99.90
17172;DHT22;8701;50.150;8.756;2023-06-22T18:21:57;25.10;99.90
17172;DHT22;8701;50.150;8.756;2023-06-22T18:25:59;25.10;99.90
17172;DHT22;8701;50.150;8.756;2023-06-22T18:30:04;25.00;99.90
17172;DHT22;8701;50.150;8.756;2023-06-22T18:34:07;24.90;99.90
17172;DHT22;8701;50.150;8.756;2023-06-22T18:38:12;24.90;99.90
17172;DHT22;8701;50.150;8.756;2023-06-22T18:42:14;24.80;99.90
17172;DHT22;8701;50.150;8.756;2023-06-22T18:46:32;24.70;99.90
17172;DHT22;8701;50.150;8.756;2023-06-22T18:50:36;24.70;99.90
17172;DHT22;8701;50.150;8.756;2023-06-22T18:54:40;24.60;99.90
17172;DHT22;8701;50.150;8.756;2023-06-22T18:58:43;24.50;99.90
17172;DHT22;8701;50.150;8.756;2023-06-22T19:02:57;24.40;99.90
17172;DHT22;8701;50.150;8.756;2023-06-22T19:06:59;24.40;99.90
17172;DHT22;8701;50.150;8.756;2023-06-22T19:11:11;24.30;99.90
17172;DHT22;8701;50.150;8.756;2023-06-22T19:15:13;24.30;99.90
17172;DHT22;8701;50.150;8.756;2023-06-22T19:19:17;24.30;99.90
17172;DHT22;8701;50.150;8.756;2023-06-22T19:23:23;24.20;99.90
17172;DHT22;8701;50.150;8.756;2023-06-22T19:27:29;24.10;99.90
17172;DHT22;8701;50.150;8.756;2023-06-22T19:31:32;24.10;99.90
17172;DHT22;8701;50.150;8.756;2023-06-22T19:35:36;24.00;99.90
17172;DHT22;8701;50.150;8.756;2023-06-22T19:39:38;23.90;99.90
17172;DHT22;8701;50.150;8.756;2023-06-22T19:43:40;23.90;99.90
17172;DHT22;8701;50.150;8.756;2023-06-22T19:47:43;23.90;99.90
17172;DHT22;8701;50.150;8.756;2023-06-22T19:51:47;23.80;99.90
17172;DHT22;8701;50.150;8.756;2023-06-22T19:55:50;23.70;99.90
17172;DHT22;8701;50.150;8.756;2023-06-22T19:59:52;23.70;99.90
17172;DHT22;8701;50.150;8.756;2023-06-22T20:03:55;23.70;99.90
17172;DHT22;8701;50.150;8.756;2023-06-22T20:08:02;23.70;99.90
17172;DHT22;8701;50.150;8.756;2023-06-22T20:12:05;23.70;99.90
17172;DHT22;8701;50.150;8.756;2023-06-22T20:16:10;23.60;99.90
17172;DHT22;8701;50.150;8.756;2023-06-22T20:20:18;23.60;99.90
17172;DHT22;8701;50.150;8.756;2023-06-22T20:24:22;23.50;99.90
17172;DHT22;8701;50.150;8.756;2023-06-22T20:28:25;23.50;99.90
17172;DHT22;8701;50.150;8.756;2023-06-22T20:32:27;23.50;99.90
17172;DHT22;8701;50.150;8.756;2023-06-22T20:36:29;23.40;99.90
17172;DHT22;8701;50.150;8.756;2023-06-22T20:40:34;23.30;99.90
17172;DHT22;8701;50.150;8.756;2023-06-22T20:44:36;23.20;99.90
17172;DHT22;8701;50.150;8.756;2023-06-22T20:48:39;23.10;99.90
17172;DHT22;8701;50.150;8.756;2023-06-22T20:52:41;23.00;99.90
17172;DHT22;8701;50.150;8.756;2023-06-22T20:56:44;22.90;99.90
17172;DHT22;8701;50.150;8.756;2023-06-22T21:00:47;22.90;99.90
17172;DHT22;8701;50.150;8.756;2023-06-22T21:04:51;22.80;99.90
17172;DHT22;8701;50.150;8.756;2023-06-22T21:08:55;22.80;99.90
17172;DHT22;8701;50.150;8.756;2023-06-22T21:13:00;22.80;99.90
17172;DHT22;8701;50.150;8.756;2023-06-22T21:17:02;22.80;99.90
17172;DHT22;8701;50.150;8.756;2023-06-22T21:21:05;22.80;99.90
17172;DHT22;8701;50.150;8.756;2023-06-22T21:25:08;22.70;99.90
17172;DHT22;8701;50.150;8.756;2023-06-22T21:29:13;22.70;99.90
17172;DHT22;8701;50.150;8.756;2023-06-22T21:33:15;22.60;99.90
17172;DHT22;8701;50.150;8.756;2023-06-22T21:37:17;22.60;99.90
17172;DHT22;8701;50.150;8.756;2023-06-22T21:41:19;22.60;99.90
17172;DHT22;8701;50.150;8.756;2023-06-22T21:45:23;22.50;99.90
17172;DHT22;8701;50.150;8.756;2023-06-22T21:49:25;22.50;99.90
17172;DHT22;8701;50.150;8.756;2023-06-22T21:53:28;22.50;99.90
17172;DHT22;8701;50.150;8.756;2023-06-22T21:57:30;22.60;99.90
17172;DHT22;8701;50.150;8.756;2023-06-22T22:01:34;22.60;99.90
17172;DHT22;8701;50.150;8.756;2023-06-22T22:05:36;22.60;99.90
17172;DHT22;8701;50.150;8.756;2023-06-22T22:09:38;22.60;99.90
17172;DHT22;8701;50.150;8.756;2023-06-22T22:13:40;22.70;99.90
17172;DHT22;8701;50.150;8.756;2023-06-22T22:17:44;22.60;99.90
17172;DHT22;8701;50.150;8.756;2023-06-22T22:21:47;22.60;99.90
17172;DHT22;8701;50.150;8.756;2023-06-22T22:25:49;22.50;99.90
17172;DHT22;8701;50.150;8.756;2023-06-22T22:29:51;22.40;99.90
17172;DHT22;8701;50.150;8.756;2023-06-22T22:33:55;22.40;99.90
17172;DHT22;8701;50.150;8.756;2023-06-22T22:37:57;22.50;99.90
17172;DHT22;8701;50.150;8.756;2023-06-22T22:41:59;22.40;99.90
17172;DHT22;8701;50.150;8.756;2023-06-22T22:46:02;22.30;99.90
17172;DHT22;8701;50.150;8.756;2023-06-22T22:50:07;22.10;99.90
17172;DHT22;8701;50.150;8.756;2023-06-22T22:54:09;22.00;99.90
17172;DHT22;8701;50.150;8.756;2023-06-22T22:58:11;22.00;99.90
17172;DHT22;8701;50.150;8.756;2023-06-22T23:02:14;22.00;99.90
17172;DHT22;8701;50.150;8.756;2023-06-22T23:06:17;21.90;99.90
17172;DHT22;8701;50.150;8.756;2023-06-22T23:10:20;21.90;99.90
17172;DHT22;8701;50.150;8.756;2023-06-22T23:14:22;21.70;99.90
17172;DHT22;8701;50.150;8.756;2023-06-22T23:18:24;21.70;99.90
17172;DHT22;8701;50.150;8.756;2023-06-22T23:22:28;21.70;99.90
17172;DHT22;8701;50.150;8.756;2023-06-22T23:26:30;21.60;99.90
17172;DHT22;8701;50.150;8.756;2023-06-22T23:30:33;21.50;99.90
17172;DHT22;8701;50.150;8.756;2023-06-22T23:34:36;21.40;99.90
17172;DHT22;8701;50.150;8.756;2023-06-22T23:38:39;21.30;99.90
17172;DHT22;8701;50.150;8.756;2023-06-22T23:42:43;21.30;99.90
17172;DHT22;8701;50.150;8.756;2023-06-22T23:46:47;21.30;99.90
17172;DHT22;8701;50.150;8.756;2023-06-22T23:50:49;21.30;99.90
17172;DHT22;8701;50.150;8.756;2023-06-22T23:54:53;21.10;99.90
17172;DHT22;8701;50.150;8.756;2023-06-22T23:58:55;21.10;99.90
